sensor_id;sensor_type;location;lat;lon;timestamp;temperature;humidity
27619;DHT22;15039;50.830;4.730;2022-09-01T00:01:17;19.20;99.90
27619;DHT22;15039;50.830;4.730;2022-09-01T00:03:49;19.10;99.90
27619;DHT22;15039;50.830;4.730;2022-09-01T00:06:18;19.00;99.90
27619;DHT22;15039;50.830;4.730;2022-09-01T00:08:52;19.00;99.90
27619;DHT22;15039;50.830;4.730;2022-09-01T00:11:19;19.00;99.90
27619;DHT22;15039;50.830;4.730;2022-09-01T00:13:45;19.00;99.90
27619;DHT22;15039;50.830;4.730;2022-09-01T00:16:11;18.90;99.90
27619;DHT22;15039;50.830;4.730;2022-09-01T00:18:43;19.00;99.90
27619;DHT22;15039;50.830;4.730;2022-09-01T00:21:11;19.00;99.90
27619;DHT22;15039;50.830;4.730;2022-09-01T00:23:38;18.90;99.90
27619;DHT22;15039;50.830;4.730;2022-09-01T00:26:03;18.90;99.90
27619;DHT22;15039;50.830;4.730;2022-09-01T00:28:32;18.90;99.90
27619;DHT22;15039;50.830;4.730;2022-09-01T00:30:58;18.90;99.90
27619;DHT22;15039;50.830;4.730;2022-09-01T00:33:23;18.80;99.90
27619;DHT22;15039;50.830;4.730;2022-09-01T00:35:49;18.80;99.90
27619;DHT22;15039;50.830;4.730;2022-09-01T00:38:14;18.60;99.90
27619;DHT22;15039;50.830;4.730;2022-09-01T00:40:40;18.60;99.90
27619;DHT22;15039;50.830;4.730;2022-09-01T00:45:37;18.50;99.90
27619;DHT22;15039;50.830;4.730;2022-09-01T00:48:03;18.50;99.90
27619;DHT22;15039;50.830;4.730;2022-09-01T00:50:30;18.50;99.90
27619;DHT22;15039;50.830;4.730;2022-09-01T00:52:56;18.40;99.90
27619;DHT22;15039;50.830;4.730;2022-09-01T00:55:30;18.40;99.90
27619;DHT22;15039;50.830;4.730;2022-09-01T00:57:59;18.30;99.90
27619;DHT22;15039;50.830;4.730;2022-09-01T01:00:28;18.30;99.90
27619;DHT22;15039;50.830;4.730;2022-09-01T01:02:54;18.30;99.90
27619;DHT22;15039;50.830;4.730;2022-09-01T01:05:25;18.30;99.90
27619;DHT22;15039;50.830;4.730;2022-09-01T01:07:55;18.20;99.90
27619;DHT22;15039;50.830;4.730;2022-09-01T01:10:21;18.10;99.90
27619;DHT22;15039;50.830;4.730;2022-09-01T01:12:48;18.00;99.90
27619;DHT22;15039;50.830;4.730;2022-09-01T01:15:18;18.10;99.90
27619;DHT22;15039;50.830;4.730;2022-09-01T01:17:44;18.00;99.90
27619;DHT22;15039;50.830;4.730;2022-09-01T01:20:11;17.90;99.90
27619;DHT22;15039;50.830;4.730;2022-09-01T01:23:15;17.90;99.90
27619;DHT22;15039;50.830;4.730;2022-09-01T01:30:50;17.80;99.90
27619;DHT22;15039;50.830;4.730;2022-09-01T01:33:21;17.80;99.90
27619;DHT22;15039;50.830;4.730;2022-09-01T01:35:47;17.70;99.90
27619;DHT22;15039;50.830;4.730;2022-09-01T01:38:14;17.70;99.90
27619;DHT22;15039;50.830;4.730;2022-09-01T01:40:40;17.60;99.90
27619;DHT22;15039;50.830;4.730;2022-09-01T01:43:07;17.50;99.90
27619;DHT22;15039;50.830;4.730;2022-09-01T01:45:33;17.50;99.90
27619;DHT22;15039;50.830;4.730;2022-09-01T01:47:59;17.50;99.90
27619;DHT22;15039;50.830;4.730;2022-09-01T01:50:33;17.50;99.90
27619;DHT22;15039;50.830;4.730;2022-09-01T01:53:04;17.50;99.90
27619;DHT22;15039;50.830;4.730;2022-09-01T01:55:30;17.50;99.90
27619;DHT22;15039;50.830;4.730;2022-09-01T01:57:58;17.50;99.90
27619;DHT22;15039;50.830;4.730;2022-09-01T02:00:28;17.50;99.90
27619;DHT22;15039;50.830;4.730;2022-09-01T02:02:54;17.40;99.90
27619;DHT22;15039;50.830;4.730;2022-09-01T02:05:28;17.40;99.90
27619;DHT22;15039;50.830;4.730;2022-09-01T02:08:05;17.40;99.90
27619;DHT22;15039;50.830;4.730;2022-09-01T02:10:34;17.30;99.90
27619;DHT22;15039;50.830;4.730;2022-09-01T02:13:02;17.30;99.90
27619;DHT22;15039;50.830;4.730;2022-09-01T02:15:37;17.30;99.90
27619;DHT22;15039;50.830;4.730;2022-09-01T02:18:15;17.30;99.90
27619;DHT22;15039;50.830;4.730;2022-09-01T02:20:43;17.30;99.90
27619;DHT22;15039;50.830;4.730;2022-09-01T02:23:10;17.30;99.90
27619;DHT22;15039;50.830;4.730;2022-09-01T02:25:38;17.20;99.90
27619;DHT22;15039;50.830;4.730;2022-09-01T02:28:07;17.20;99.90
27619;DHT22;15039;50.830;4.730;2022-09-01T02:30:39;17.30;99.90
27619;DHT22;15039;50.830;4.730;2022-09-01T02:33:06;17.30;99.90
27619;DHT22;15039;50.830;4.730;2022-09-01T02:35:34;17.30;99.90
27619;DHT22;15039;50.830;4.730;2022-09-01T02:38:05;17.30;99.90
27619;DHT22;15039;50.830;4.730;2022-09-01T02:40:31;17.40;99.90
27619;DHT22;15039;50.830;4.730;2022-09-01T02:42:58;17.40;99.90
27619;DHT22;15039;50.830;4.730;2022-09-01T02:45:26;17.50;99.90
27619;DHT22;15039;50.830;4.730;2022-09-01T02:47:54;17.60;99.90
27619;DHT22;15039;50.830;4.730;2022-09-01T02:50:22;17.60;99.90
27619;DHT22;15039;50.830;4.730;2022-09-01T02:52:49;17.70;99.90
27619;DHT22;15039;50.830;4.730;2022-09-01T02:55:17;17.70;99.90
27619;DHT22;15039;50.830;4.730;2022-09-01T02:57:45;17.70;99.90
27619;DHT22;15039;50.830;4.730;2022-09-01T03:00:15;17.70;99.90
27619;DHT22;15039;50.830;4.730;2022-09-01T03:02:54;17.70;99.90
27619;DHT22;15039;50.830;4.730;2022-09-01T03:05:22;17.70;99.90
27619;DHT22;15039;50.830;4.730;2022-09-01T03:07:57;17.60;99.90
27619;DHT22;15039;50.830;4.730;2022-09-01T03:10:25;17.60;99.90
27619;DHT22;15039;50.830;4.730;2022-09-01T03:12:58;17.60;99.90
27619;DHT22;15039;50.830;4.730;2022-09-01T03:15:25;17.50;99.90
27619;DHT22;15039;50.830;4.730;2022-09-01T03:17:52;17.50;99.90
27619;DHT22;15039;50.830;4.730;2022-09-01T03:20:17;17.30;99.90
27619;DHT22;15039;50.830;4.730;2022-09-01T03:22:47;17.30;99.90
27619;DHT22;15039;50.830;4.730;2022-09-01T03:25:13;17.20;99.90
27619;DHT22;15039;50.830;4.730;2022-09-01T03:27:39;17.10;99.90
27619;DHT22;15039;50.830;4.730;2022-09-01T03:30:05;17.10;99.90
27619;DHT22;15039;50.830;4.730;2022-09-01T03:32:31;16.90;99.90
27619;DHT22;15039;50.830;4.730;2022-09-01T03:34:57;16.90;99.90
27619;DHT22;15039;50.830;4.730;2022-09-01T03:37:24;16.80;99.90
27619;DHT22;15039;50.830;4.730;2022-09-01T03:39:50;16.80;99.90
27619;DHT22;15039;50.830;4.730;2022-09-01T03:42:15;16.80;99.90
27619;DHT22;15039;50.830;4.730;2022-09-01T03:44:47;16.90;99.90
27619;DHT22;15039;50.830;4.730;2022-09-01T03:47:14;16.80;99.90
27619;DHT22;15039;50.830;4.730;2022-09-01T03:49:41;16.70;99.90
27619;DHT22;15039;50.830;4.730;2022-09-01T03:52:08;16.70;99.90
27619;DHT22;15039;50.830;4.730;2022-09-01T03:54:35;16.70;99.90
27619;DHT22;15039;50.830;4.730;2022-09-01T03:57:00;16.60;99.90
27619;DHT22;15039;50.830;4.730;2022-09-01T03:59:26;16.50;99.90
27619;DHT22;15039;50.830;4.730;2022-09-01T04:01:54;16.60;99.90
27619;DHT22;15039;50.830;4.730;2022-09-01T04:04:20;16.60;99.90
27619;DHT22;15039;50.830;4.730;2022-09-01T04:06:46;16.60;99.90
27619;DHT22;15039;50.830;4.730;2022-09-01T04:09:12;16.60;99.90
27619;DHT22;15039;50.830;4.730;2022-09-01T04:11:38;16.50;99.90
27619;DHT22;15039;50.830;4.730;2022-09-01T04:14:09;16.50;99.90
27619;DHT22;15039;50.830;4.730;2022-09-01T04:16:35;16.40;99.90
27619;DHT22;15039;50.830;4.730;2022-09-01T04:19:22;16.30;99.90
27619;DHT22;15039;50.830;4.730;2022-09-01T04:21:54;16.40;99.90
27619;DHT22;15039;50.830;4.730;2022-09-01T04:24:21;16.40;99.90
27619;DHT22;15039;50.830;4.730;2022-09-01T04:26:50;16.40;99.90
27619;DHT22;15039;50.830;4.730;2022-09-01T04:29:17;16.40;99.90
27619;DHT22;15039;50.830;4.730;2022-09-01T04:31:44;16.30;99.90
27619;DHT22;15039;50.830;4.730;2022-09-01T04:34:11;16.20;99.90
27619;DHT22;15039;50.830;4.730;2022-09-01T04:36:40;16.10;99.90
27619;DHT22;15039;50.830;4.730;2022-09-01T04:39:07;16.10;99.90
27619;DHT22;15039;50.830;4.730;2022-09-01T04:41:41;16.10;99.90
27619;DHT22;15039;50.830;4.730;2022-09-01T04:44:07;16.10;99.90
27619;DHT22;15039;50.830;4.730;2022-09-01T04:46:36;16.10;99.90
27619;DHT22;15039;50.830;4.730;2022-09-01T04:49:04;16.10;99.90
27619;DHT22;15039;50.830;4.730;2022-09-01T04:51:37;16.20;99.90
27619;DHT22;15039;50.830;4.730;2022-09-01T04:54:03;16.20;99.90
27619;DHT22;15039;50.830;4.730;2022-09-01T04:56:30;16.20;99.90
27619;DHT22;15039;50.830;4.730;2022-09-01T04:59:00;16.10;99.90
27619;DHT22;15039;50.830;4.730;2022-09-01T05:01:32;16.10;99.90
27619;DHT22;15039;50.830;4.730;2022-09-01T05:04:28;16.00;99.90
27619;DHT22;15039;50.830;4.730;2022-09-01T05:06:58;16.00;99.90
27619;DHT22;15039;50.830;4.730;2022-09-01T05:09:27;16.00;99.90
27619;DHT22;15039;50.830;4.730;2022-09-01T05:11:54;16.00;99.90
27619;DHT22;15039;50.830;4.730;2022-09-01T05:14:21;15.90;99.90
27619;DHT22;15039;50.830;4.730;2022-09-01T05:16:48;15.90;99.90
27619;DHT22;15039;50.830;4.730;2022-09-01T05:19:15;15.90;99.90
27619;DHT22;15039;50.830;4.730;2022-09-01T05:21:44;15.90;99.90
27619;DHT22;15039;50.830;4.730;2022-09-01T05:24:14;16.00;99.90
27619;DHT22;15039;50.830;4.730;2022-09-01T05:26:40;16.00;99.90
27619;DHT22;15039;50.830;4.730;2022-09-01T05:29:08;16.00;99.90
27619;DHT22;15039;50.830;4.730;2022-09-01T05:31:39;16.00;99.90
27619;DHT22;15039;50.830;4.730;2022-09-01T05:34:06;16.00;99.90
27619;DHT22;15039;50.830;4.730;2022-09-01T05:36:35;16.10;99.90
27619;DHT22;15039;50.830;4.730;2022-09-01T05:39:03;16.10;99.90
27619;DHT22;15039;50.830;4.730;2022-09-01T05:41:30;16.10;99.90
27619;DHT22;15039;50.830;4.730;2022-09-01T05:43:58;16.10;99.90
27619;DHT22;15039;50.830;4.730;2022-09-01T05:46:25;16.20;99.90
27619;DHT22;15039;50.830;4.730;2022-09-01T05:48:53;16.10;99.90
27619;DHT22;15039;50.830;4.730;2022-09-01T05:51:24;16.20;99.90
27619;DHT22;15039;50.830;4.730;2022-09-01T05:53:55;16.20;99.90
27619;DHT22;15039;50.830;4.730;2022-09-01T05:56:24;16.20;99.90
27619;DHT22;15039;50.830;4.730;2022-09-01T05:58:50;16.30;99.90
27619;DHT22;15039;50.830;4.730;2022-09-01T06:01:23;16.30;99.90
27619;DHT22;15039;50.830;4.730;2022-09-01T06:03:52;16.50;99.90
27619;DHT22;15039;50.830;4.730;2022-09-01T06:06:20;16.60;99.90
27619;DHT22;15039;50.830;4.730;2022-09-01T06:08:50;16.60;99.90
27619;DHT22;15039;50.830;4.730;2022-09-01T06:11:17;16.60;99.90
27619;DHT22;15039;50.830;4.730;2022-09-01T06:13:44;16.60;99.90
27619;DHT22;15039;50.830;4.730;2022-09-01T06:16:15;16.60;99.90
27619;DHT22;15039;50.830;4.730;2022-09-01T06:18:41;16.60;99.90
27619;DHT22;15039;50.830;4.730;2022-09-01T06:21:09;16.70;99.90
27619;DHT22;15039;50.830;4.730;2022-09-01T06:23:40;16.80;99.90
27619;DHT22;15039;50.830;4.730;2022-09-01T06:26:14;16.90;99.90
27619;DHT22;15039;50.830;4.730;2022-09-01T06:28:42;17.00;99.90
27619;DHT22;15039;50.830;4.730;2022-09-01T06:31:07;17.00;99.90
27619;DHT22;15039;50.830;4.730;2022-09-01T06:33:34;17.00;99.90
27619;DHT22;15039;50.830;4.730;2022-09-01T06:36:00;17.10;99.90
27619;DHT22;15039;50.830;4.730;2022-09-01T06:38:28;17.10;99.90
27619;DHT22;15039;50.830;4.730;2022-09-01T06:41:04;17.30;99.90
27619;DHT22;15039;50.830;4.730;2022-09-01T06:43:35;17.20;99.90
27619;DHT22;15039;50.830;4.730;2022-09-01T06:46:01;17.30;99.90
27619;DHT22;15039;50.830;4.730;2022-09-01T06:48:28;17.40;99.90
27619;DHT22;15039;50.830;4.730;2022-09-01T06:51:01;17.50;99.90
27619;DHT22;15039;50.830;4.730;2022-09-01T06:53:28;17.60;99.90
27619;DHT22;15039;50.830;4.730;2022-09-01T06:55:55;17.70;99.90
27619;DHT22;15039;50.830;4.730;2022-09-01T06:58:21;17.80;99.90
27619;DHT22;15039;50.830;4.730;2022-09-01T07:00:46;17.80;99.90
27619;DHT22;15039;50.830;4.730;2022-09-01T07:03:14;17.90;99.90
27619;DHT22;15039;50.830;4.730;2022-09-01T07:05:45;17.90;99.90
27619;DHT22;15039;50.830;4.730;2022-09-01T07:08:14;18.00;99.90
27619;DHT22;15039;50.830;4.730;2022-09-01T07:10:46;18.00;99.90
27619;DHT22;15039;50.830;4.730;2022-09-01T07:13:14;18.00;99.90
27619;DHT22;15039;50.830;4.730;2022-09-01T07:15:45;18.20;99.90
27619;DHT22;15039;50.830;4.730;2022-09-01T07:18:18;18.20;99.90
27619;DHT22;15039;50.830;4.730;2022-09-01T07:20:46;18.20;99.90
27619;DHT22;15039;50.830;4.730;2022-09-01T07:23:15;18.40;99.90
27619;DHT22;15039;50.830;4.730;2022-09-01T07:25:44;18.50;99.90
27619;DHT22;15039;50.830;4.730;2022-09-01T07:28:11;18.70;99.90
27619;DHT22;15039;50.830;4.730;2022-09-01T07:30:44;18.60;99.90
27619;DHT22;15039;50.830;4.730;2022-09-01T07:33:11;18.60;99.90
27619;DHT22;15039;50.830;4.730;2022-09-01T07:35:39;18.70;99.90
27619;DHT22;15039;50.830;4.730;2022-09-01T07:38:05;18.90;99.90
27619;DHT22;15039;50.830;4.730;2022-09-01T07:40:33;18.90;99.90
27619;DHT22;15039;50.830;4.730;2022-09-01T07:43:06;19.00;99.90
27619;DHT22;15039;50.830;4.730;2022-09-01T07:45:36;19.20;99.90
27619;DHT22;15039;50.830;4.730;2022-09-01T07:48:05;19.20;99.90
27619;DHT22;15039;50.830;4.730;2022-09-01T07:50:33;19.20;99.90
27619;DHT22;15039;50.830;4.730;2022-09-01T07:52:59;19.30;99.90
27619;DHT22;15039;50.830;4.730;2022-09-01T07:55:26;19.30;99.90
27619;DHT22;15039;50.830;4.730;2022-09-01T07:57:53;19.50;99.90
27619;DHT22;15039;50.830;4.730;2022-09-01T08:00:19;19.60;99.90
27619;DHT22;15039;50.830;4.730;2022-09-01T08:02:46;19.60;99.90
27619;DHT22;15039;50.830;4.730;2022-09-01T08:05:15;19.70;99.90
27619;DHT22;15039;50.830;4.730;2022-09-01T08:07:42;19.90;99.90
27619;DHT22;15039;50.830;4.730;2022-09-01T08:10:08;20.00;99.90
27619;DHT22;15039;50.830;4.730;2022-09-01T08:12:34;20.10;99.90
27619;DHT22;15039;50.830;4.730;2022-09-01T08:15:07;20.30;99.90
27619;DHT22;15039;50.830;4.730;2022-09-01T08:17:36;20.40;99.90
27619;DHT22;15039;50.830;4.730;2022-09-01T08:20:02;20.50;99.90
27619;DHT22;15039;50.830;4.730;2022-09-01T08:22:28;20.60;99.90
27619;DHT22;15039;50.830;4.730;2022-09-01T08:24:53;20.70;99.90
27619;DHT22;15039;50.830;4.730;2022-09-01T08:27:19;20.70;99.90
27619;DHT22;15039;50.830;4.730;2022-09-01T08:29:46;20.90;99.90
27619;DHT22;15039;50.830;4.730;2022-09-01T08:32:13;21.00;99.90
27619;DHT22;15039;50.830;4.730;2022-09-01T08:34:38;21.10;99.90
27619;DHT22;15039;50.830;4.730;2022-09-01T08:37:05;21.20;99.90
27619;DHT22;15039;50.830;4.730;2022-09-01T08:39:31;21.30;99.90
27619;DHT22;15039;50.830;4.730;2022-09-01T08:47:05;21.50;99.90
27619;DHT22;15039;50.830;4.730;2022-09-01T08:49:33;21.70;99.90
27619;DHT22;15039;50.830;4.730;2022-09-01T08:55:00;21.80;99.70
27619;DHT22;15039;50.830;4.730;2022-09-01T08:59:58;21.80;99.80
27619;DHT22;15039;50.830;4.730;2022-09-01T09:05:29;22.20;99.10
27619;DHT22;15039;50.830;4.730;2022-09-01T09:11:05;22.30;98.80
27619;DHT22;15039;50.830;4.730;2022-09-01T09:16:27;22.40;99.00
27619;DHT22;15039;50.830;4.730;2022-09-01T09:19:08;22.40;98.80
27619;DHT22;15039;50.830;4.730;2022-09-01T09:21:41;22.50;99.00
27619;DHT22;15039;50.830;4.730;2022-09-01T09:29:51;22.80;98.00
27619;DHT22;15039;50.830;4.730;2022-09-01T09:32:19;22.90;97.60
27619;DHT22;15039;50.830;4.730;2022-09-01T09:34:46;22.90;97.30
27619;DHT22;15039;50.830;4.730;2022-09-01T09:42:33;23.20;96.50
27619;DHT22;15039;50.830;4.730;2022-09-01T09:44:59;23.30;96.30
27619;DHT22;15039;50.830;4.730;2022-09-01T09:47:42;23.30;95.90
27619;DHT22;15039;50.830;4.730;2022-09-01T09:50:18;23.50;95.10
27619;DHT22;15039;50.830;4.730;2022-09-01T09:52:45;23.70;95.40
27619;DHT22;15039;50.830;4.730;2022-09-01T09:55:29;23.70;94.30
27619;DHT22;15039;50.830;4.730;2022-09-01T09:57:59;23.80;94.30
27619;DHT22;15039;50.830;4.730;2022-09-01T10:00:29;23.70;94.30
27619;DHT22;15039;50.830;4.730;2022-09-01T10:03:07;23.80;94.30
27619;DHT22;15039;50.830;4.730;2022-09-01T10:08:11;23.90;93.00
27619;DHT22;15039;50.830;4.730;2022-09-01T10:10:46;23.90;93.20
27619;DHT22;15039;50.830;4.730;2022-09-01T10:15:43;24.10;92.70
27619;DHT22;15039;50.830;4.730;2022-09-01T10:18:15;24.10;92.20
27619;DHT22;15039;50.830;4.730;2022-09-01T10:23:20;24.30;91.80
27619;DHT22;15039;50.830;4.730;2022-09-01T10:25:46;24.30;92.00
27619;DHT22;15039;50.830;4.730;2022-09-01T10:28:15;24.30;91.70
27619;DHT22;15039;50.830;4.730;2022-09-01T10:30:44;24.30;90.50
27619;DHT22;15039;50.830;4.730;2022-09-01T10:33:13;24.30;90.90
27619;DHT22;15039;50.830;4.730;2022-09-01T10:35:43;24.40;91.10
27619;DHT22;15039;50.830;4.730;2022-09-01T10:38:15;24.40;91.30
27619;DHT22;15039;50.830;4.730;2022-09-01T10:40:50;24.40;91.70
27619;DHT22;15039;50.830;4.730;2022-09-01T10:43:37;24.40;91.10
27619;DHT22;15039;50.830;4.730;2022-09-01T10:48:47;24.50;91.50
27619;DHT22;15039;50.830;4.730;2022-09-01T10:56:23;24.80;90.90
27619;DHT22;15039;50.830;4.730;2022-09-01T11:04:08;25.00;90.40
27619;DHT22;15039;50.830;4.730;2022-09-01T11:12:46;25.10;90.70
27619;DHT22;15039;50.830;4.730;2022-09-01T11:20:32;25.00;91.10
27619;DHT22;15039;50.830;4.730;2022-09-01T11:36:36;25.30;90.60
27619;DHT22;15039;50.830;4.730;2022-09-01T11:47:11;25.30;90.30
27619;DHT22;15039;50.830;4.730;2022-09-01T11:49:54;25.50;90.30
27619;DHT22;15039;50.830;4.730;2022-09-01T11:52:27;25.50;90.00
27619;DHT22;15039;50.830;4.730;2022-09-01T11:54:55;25.40;90.00
27619;DHT22;15039;50.830;4.730;2022-09-01T11:57:35;25.50;89.90
27619;DHT22;15039;50.830;4.730;2022-09-01T12:00:07;25.60;89.50
27619;DHT22;15039;50.830;4.730;2022-09-01T12:02:35;25.60;89.70
27619;DHT22;15039;50.830;4.730;2022-09-01T12:05:26;25.60;90.00
27619;DHT22;15039;50.830;4.730;2022-09-01T12:07:53;25.80;90.10
27619;DHT22;15039;50.830;4.730;2022-09-01T12:10:36;25.90;90.10
27619;DHT22;15039;50.830;4.730;2022-09-01T12:13:17;25.90;90.20
27619;DHT22;15039;50.830;4.730;2022-09-01T12:15:43;25.80;90.00
27619;DHT22;15039;50.830;4.730;2022-09-01T12:18:22;25.80;90.30
27619;DHT22;15039;50.830;4.730;2022-09-01T12:20:50;25.90;90.30
27619;DHT22;15039;50.830;4.730;2022-09-01T12:23:26;26.00;90.00
27619;DHT22;15039;50.830;4.730;2022-09-01T12:26:01;26.00;89.20
27619;DHT22;15039;50.830;4.730;2022-09-01T12:28:29;26.20;89.40
27619;DHT22;15039;50.830;4.730;2022-09-01T12:31:06;26.40;88.70
27619;DHT22;15039;50.830;4.730;2022-09-01T12:33:32;26.30;88.30
27619;DHT22;15039;50.830;4.730;2022-09-01T12:38:47;26.40;87.30
27619;DHT22;15039;50.830;4.730;2022-09-01T12:41:46;26.30;88.10
27619;DHT22;15039;50.830;4.730;2022-09-01T12:46:58;26.50;88.80
27619;DHT22;15039;50.830;4.730;2022-09-01T12:54:47;26.50;88.80
27619;DHT22;15039;50.830;4.730;2022-09-01T13:05:30;26.10;87.70
27619;DHT22;15039;50.830;4.730;2022-09-01T13:08:07;26.10;88.00
27619;DHT22;15039;50.830;4.730;2022-09-01T13:10:37;26.10;88.10
27619;DHT22;15039;50.830;4.730;2022-09-01T13:13:04;26.20;88.20
27619;DHT22;15039;50.830;4.730;2022-09-01T13:15:31;26.20;87.40
27619;DHT22;15039;50.830;4.730;2022-09-01T13:17:57;26.10;86.50
27619;DHT22;15039;50.830;4.730;2022-09-01T13:20:23;26.00;86.90
27619;DHT22;15039;50.830;4.730;2022-09-01T13:22:48;26.00;86.80
27619;DHT22;15039;50.830;4.730;2022-09-01T13:25:17;26.10;86.30
27619;DHT22;15039;50.830;4.730;2022-09-01T13:27:44;26.20;86.30
27619;DHT22;15039;50.830;4.730;2022-09-01T13:30:18;26.20;85.00
27619;DHT22;15039;50.830;4.730;2022-09-01T13:32:45;26.20;85.20
27619;DHT22;15039;50.830;4.730;2022-09-01T13:35:16;26.20;85.10
27619;DHT22;15039;50.830;4.730;2022-09-01T13:37:42;26.20;84.80
27619;DHT22;15039;50.830;4.730;2022-09-01T13:40:08;26.30;85.60
27619;DHT22;15039;50.830;4.730;2022-09-01T13:42:46;26.30;84.50
27619;DHT22;15039;50.830;4.730;2022-09-01T13:45:13;26.20;85.10
27619;DHT22;15039;50.830;4.730;2022-09-01T13:47:42;26.30;84.80
27619;DHT22;15039;50.830;4.730;2022-09-01T13:50:09;26.30;84.40
27619;DHT22;15039;50.830;4.730;2022-09-01T13:52:43;26.30;84.40
27619;DHT22;15039;50.830;4.730;2022-09-01T13:55:11;26.40;83.30
27619;DHT22;15039;50.830;4.730;2022-09-01T13:57:37;26.30;82.60
27619;DHT22;15039;50.830;4.730;2022-09-01T14:00:09;26.30;82.80
27619;DHT22;15039;50.830;4.730;2022-09-01T14:02:37;26.10;83.20
27619;DHT22;15039;50.830;4.730;2022-09-01T14:05:03;26.20;84.70
27619;DHT22;15039;50.830;4.730;2022-09-01T14:07:28;26.30;83.80
27619;DHT22;15039;50.830;4.730;2022-09-01T14:09:56;26.50;83.90
27619;DHT22;15039;50.830;4.730;2022-09-01T14:12:22;26.50;84.00
27619;DHT22;15039;50.830;4.730;2022-09-01T14:14:48;26.50;83.40
27619;DHT22;15039;50.830;4.730;2022-09-01T14:17:14;26.60;83.40
27619;DHT22;15039;50.830;4.730;2022-09-01T14:19:40;26.60;83.20
27619;DHT22;15039;50.830;4.730;2022-09-01T14:22:06;26.70;83.00
27619;DHT22;15039;50.830;4.730;2022-09-01T14:24:36;26.50;82.60
27619;DHT22;15039;50.830;4.730;2022-09-01T14:27:03;26.50;82.70
27619;DHT22;15039;50.830;4.730;2022-09-01T14:29:28;26.50;82.00
27619;DHT22;15039;50.830;4.730;2022-09-01T14:31:54;26.40;82.30
27619;DHT22;15039;50.830;4.730;2022-09-01T14:34:22;26.40;81.90
27619;DHT22;15039;50.830;4.730;2022-09-01T14:36:49;26.30;82.20
27619;DHT22;15039;50.830;4.730;2022-09-01T14:39:16;26.50;82.50
27619;DHT22;15039;50.830;4.730;2022-09-01T14:41:42;26.50;82.00
27619;DHT22;15039;50.830;4.730;2022-09-01T14:44:07;26.60;82.20
27619;DHT22;15039;50.830;4.730;2022-09-01T14:46:33;26.50;81.10
27619;DHT22;15039;50.830;4.730;2022-09-01T14:49:00;26.40;81.20
27619;DHT22;15039;50.830;4.730;2022-09-01T14:51:29;26.40;82.00
27619;DHT22;15039;50.830;4.730;2022-09-01T14:53:55;26.30;82.00
27619;DHT22;15039;50.830;4.730;2022-09-01T14:56:22;26.30;81.70
27619;DHT22;15039;50.830;4.730;2022-09-01T14:58:49;26.40;82.30
27619;DHT22;15039;50.830;4.730;2022-09-01T15:01:18;26.50;82.00
27619;DHT22;15039;50.830;4.730;2022-09-01T15:03:47;26.40;81.90
27619;DHT22;15039;50.830;4.730;2022-09-01T15:06:14;26.50;81.50
27619;DHT22;15039;50.830;4.730;2022-09-01T15:08:41;26.60;81.70
27619;DHT22;15039;50.830;4.730;2022-09-01T15:11:09;26.70;81.50
27619;DHT22;15039;50.830;4.730;2022-09-01T15:13:36;26.70;79.30
27619;DHT22;15039;50.830;4.730;2022-09-01T15:16:03;26.80;78.10
27619;DHT22;15039;50.830;4.730;2022-09-01T15:18:29;26.70;78.70
27619;DHT22;15039;50.830;4.730;2022-09-01T15:20:55;26.70;79.70
27619;DHT22;15039;50.830;4.730;2022-09-01T15:23:23;26.70;79.20
27619;DHT22;15039;50.830;4.730;2022-09-01T15:25:53;26.70;79.80
27619;DHT22;15039;50.830;4.730;2022-09-01T15:28:19;26.70;79.80
27619;DHT22;15039;50.830;4.730;2022-09-01T15:30:46;26.90;79.60
27619;DHT22;15039;50.830;4.730;2022-09-01T15:33:12;27.00;78.10
27619;DHT22;15039;50.830;4.730;2022-09-01T15:35:38;27.10;78.50
27619;DHT22;15039;50.830;4.730;2022-09-01T15:38:04;27.00;77.90
27619;DHT22;15039;50.830;4.730;2022-09-01T15:40:32;27.10;77.80
27619;DHT22;15039;50.830;4.730;2022-09-01T15:42:58;27.00;77.70
27619;DHT22;15039;50.830;4.730;2022-09-01T15:45:25;27.00;78.10
27619;DHT22;15039;50.830;4.730;2022-09-01T15:47:51;27.00;77.10
27619;DHT22;15039;50.830;4.730;2022-09-01T15:50:20;26.90;77.50
27619;DHT22;15039;50.830;4.730;2022-09-01T15:53:06;26.90;78.80
27619;DHT22;15039;50.830;4.730;2022-09-01T15:55:51;26.80;79.90
27619;DHT22;15039;50.830;4.730;2022-09-01T15:58:17;26.90;78.80
27619;DHT22;15039;50.830;4.730;2022-09-01T16:00:43;27.00;79.50
27619;DHT22;15039;50.830;4.730;2022-09-01T16:03:10;27.00;79.00
27619;DHT22;15039;50.830;4.730;2022-09-01T16:05:37;26.90;78.70
27619;DHT22;15039;50.830;4.730;2022-09-01T16:08:05;26.90;79.30
27619;DHT22;15039;50.830;4.730;2022-09-01T16:10:34;27.00;79.30
27619;DHT22;15039;50.830;4.730;2022-09-01T16:13:00;26.90;79.00
27619;DHT22;15039;50.830;4.730;2022-09-01T16:15:26;27.00;78.80
27619;DHT22;15039;50.830;4.730;2022-09-01T16:20:39;27.10;78.40
27619;DHT22;15039;50.830;4.730;2022-09-01T16:23:13;27.10;78.60
27619;DHT22;15039;50.830;4.730;2022-09-01T16:25:39;27.10;79.10
27619;DHT22;15039;50.830;4.730;2022-09-01T16:28:33;27.10;78.80
27619;DHT22;15039;50.830;4.730;2022-09-01T16:31:15;27.10;79.20
27619;DHT22;15039;50.830;4.730;2022-09-01T16:33:49;27.00;79.80
27619;DHT22;15039;50.830;4.730;2022-09-01T16:36:35;27.00;80.20
27619;DHT22;15039;50.830;4.730;2022-09-01T16:39:32;27.10;79.70
27619;DHT22;15039;50.830;4.730;2022-09-01T16:55:54;26.80;80.30
27619;DHT22;15039;50.830;4.730;2022-09-01T17:03:54;26.50;81.40
27619;DHT22;15039;50.830;4.730;2022-09-01T17:06:28;26.40;81.90
27619;DHT22;15039;50.830;4.730;2022-09-01T17:09:07;26.50;81.60
27619;DHT22;15039;50.830;4.730;2022-09-01T17:11:52;26.80;81.90
27619;DHT22;15039;50.830;4.730;2022-09-01T17:14:35;27.10;81.40
27619;DHT22;15039;50.830;4.730;2022-09-01T17:17:07;27.50;81.10
27619;DHT22;15039;50.830;4.730;2022-09-01T17:19:37;27.30;80.80
27619;DHT22;15039;50.830;4.730;2022-09-01T17:22:04;27.00;81.20
27619;DHT22;15039;50.830;4.730;2022-09-01T17:24:42;26.90;81.40
27619;DHT22;15039;50.830;4.730;2022-09-01T17:27:25;26.80;81.40
27619;DHT22;15039;50.830;4.730;2022-09-01T17:29:54;26.60;82.00
27619;DHT22;15039;50.830;4.730;2022-09-01T17:36:11;26.50;82.10
27619;DHT22;15039;50.830;4.730;2022-09-01T17:48:57;25.80;83.90
27619;DHT22;15039;50.830;4.730;2022-09-01T17:51:47;25.60;84.10
27619;DHT22;15039;50.830;4.730;2022-09-01T18:10:24;24.70;86.90
27619;DHT22;15039;50.830;4.730;2022-09-01T18:12:59;24.70;86.90
27619;DHT22;15039;50.830;4.730;2022-09-01T18:15:39;24.60;87.10
27619;DHT22;15039;50.830;4.730;2022-09-01T18:18:36;24.50;87.20
27619;DHT22;15039;50.830;4.730;2022-09-01T18:21:42;24.40;87.40
27619;DHT22;15039;50.830;4.730;2022-09-01T18:28:06;24.10;88.30
27619;DHT22;15039;50.830;4.730;2022-09-01T18:39:21;23.50;90.10
27619;DHT22;15039;50.830;4.730;2022-09-01T18:44:38;23.40;90.20